Share

Goodland, KS

City of Gld Backyard Station (KKSGOODL6) Elev 3711 ft | 39.34 °N, 101.71 °W | Change Station

Current weather conditions updated 4 minutes ago

Clear
Clear
66.6 °F
Feels Like 66.6 °F
N
4.7
Wind Variable Wind from NNE
Sunrise 6:03 AM
Sunset 7:28 PM
Moon Waning Gibbous

Today is forecast to be nearly the same temperature as yesterday. A few showers developing late tonight.

Pressure 29.84 in
Visibility 10.0 miles
Clouds Clear
Dew Point 48 °F
Humidity 51%
Rainfall 0.01 in
Snow Depth Not available.
UV 3 out of 16
Pollen 11.00 out of 12
Air Quality Not available.
Flu Activity No Activity
METAR KGLD 191453Z AUTO 34013KT 10SM CLR 16/07 A2992 RMK AO2 SLP104 T01610067 50009

More Conditions Fewer Conditions

Pressure 29.84 in
Visibility 10.0 miles
Clouds Clear
Dew Point 48 °F
Humidity 51%
Rainfall 0.01 in
Snow Depth Not available.
UV 3 out of 16
Pollen 11.00 out of 12
Air Quality Not available.
Flu Activity No Activity
METAR KGLD 191453Z AUTO 34013KT 10SM CLR 16/07 A2992 RMK AO2 SLP104 T01610067 50009

More Conditions Fewer Conditions

10-Day Weather Forecast

Almanac

Astronomy

Apr. 19, 2014 Rise Set
Actual Time 6:03 AM MDT 7:28 PM MDT
Civil Twilight 5:35 AM MDT 7:56 PM MDT
Nautical Twilight 5:02 AM MDT 8:30 PM MDT
Astronomical Twilight 4:26 AM MDT 9:05 PM MDT
Moon No Moon Rise 9:25 AM MDT
Length of Visible Light 14h 20m
Length of Day
13h 24m
Tomorrow will be 2m 24s longer.
Waning Gibbous, 79% of the Moon is Illuminated
Today
Waning Gibbous
Apr 22
Last Quarter
Apr 29
New
May 6
First Quarter
May 14
Full

Today's Extremes

State Highs State Lows

Community

  • A Glorious Morning
    A Glorious Morning
  • Tender Rays Of Hope
    Tender Rays Of Hope
  • Bleeding Hearts
    Bleeding Hearts
  • Sunset Silhouettes
    Sunset Silhouettes
  • FL sunset Perico Isle
    FL sunset Perico Isle

WunderPhotos

Upload Photos

1,702,769 photos uploaded!

WunderBlogs® & News

Nearby

Snow Depth

Station Depth Elevation
No new snow has been reported.

Coastal Water Temperatures

Place Temperature
No Stations Reporting

Earthquake Activity

City Distance Mag. Time & Date
No recent earthquake activity has been reported nearby.
Minimum magnitude displayed is 2.5.

Nearby Weather Stations

Station Location Temp. Dew Point Humidity Wind Precip. Elev Updated Type
City of Gld Backyard Station, Goodland, KS 66.6 °F 48 °F 51% NNE  at  4.7 mph - / hr 3711 ft 9:48 AM MDT Normal
Beaver Creek Weather, Goodland, KS 64.8 °F 47 °F 53% NNE  at  18.0 mph 0.00 in / hr 3450 ft 9:53 AM MDT Rapid Fire

Show More Stations Show Fewer Stations

What do you think?

We're not finished. Please let us know what you like, what you don't like, and what you are still missing.